^^
Station Historical Data
Daily Summary for October 12, 2018 Units:  Both    English   Metric
« Previous Day
Next Day »
Daily Weekly Monthly Yearly Custom
  High: Low: Average:
Temperature: TemperatureF °F /  -17.8 °C 49.6 °F /  9.8 °C 56.4 °F /  13.6 °C
Dew Point: DewpointF °F /  -17.8 °C 36.3 °F /  2.4 °C 44.6 °F /  7 °C
Humidity: Humidity% 31% 66%
Wind Speed: WindSpeedMPHmph /  0km/h - 0.6mph /  1km/h
Wind Gust: WindSpeedGustMPHmph /  0km/h - -
Wind- - SW
Pressure: PressureIn in /  0 hPa 29.91 in /  1012.8 hPa -
Precipitation: 0 in /  0 mm    
Historical Graphs
 
 
Tabular Data for October 12, 2018
Time Temperature Dew Point Pressure Wind Wind Speed Wind Gust Humidity Rainfall Rate (Hourly)
TemperatureF °F /  -17.8 °C DewpointF °F /  -17.8 °C PressureInin /  0hPa Calm     Humidity% HourlyPrecipInin /  0mm
00:04 55 °F /  12.8 °C 47.3 °F /  8.5 °C 29.94in /  1013.8hPa Calm   1mph /  1.6km/h 75% 0in /  0mm
00:09 55 °F /  12.8 °C 47.3 °F /  8.5 °C 29.94in /  1013.8hPa Calm   1mph /  1.6km/h 75% 0in /  0mm
00:14 55 °F /  12.8 °C 47.3 °F /  8.5 °C 29.94in /  1013.8hPa Calm   3mph /  4.8km/h 75% 0in /  0mm
00:19 55 °F /  12.8 °C 47.7 °F /  8.7 °C 29.93in /  1013.4hPa Calm   3mph /  4.8km/h 76% 0in /  0mm
00:24 55 °F /  12.8 °C 47.3 °F /  8.5 °C 29.93in /  1013.4hPa Calm   4mph /  6.4km/h 75% 0in /  0mm
00:29 55 °F /  12.8 °C 47.3 °F /  8.5 °C 29.94in /  1013.8hPa Calm   3mph /  4.8km/h 75% 0in /  0mm
00:34 55 °F /  12.8 °C 47.7 °F /  8.7 °C 29.94in /  1013.8hPa NW 0.9mph /  1.4km/h 5mph /  8km/h 76% 0in /  0mm
00:39 55 °F /  12.8 °C 47.7 °F /  8.7 °C 29.94in /  1013.8hPa ENE 2mph /  3.2km/h 2mph /  3.2km/h 76% 0in /  0mm
00:44 55 °F /  12.8 °C 48 °F /  8.9 °C 29.94in /  1013.8hPa Calm   1mph /  1.6km/h 77% 0in /  0mm
00:49 55 °F /  12.8 °C 48 °F /  8.9 °C 29.94in /  1013.8hPa Calm     77% 0in /  0mm
00:54 55 °F /  12.8 °C 48 °F /  8.9 °C 29.94in /  1013.8hPa Calm   2mph /  3.2km/h 77% 0in /  0mm
00:59 55 °F /  12.8 °C 48.4 °F /  9.1 °C 29.94in /  1013.8hPa Calm   4mph /  6.4km/h 78% 0in /  0mm
01:04 55 °F /  12.8 °C 48 °F /  8.9 °C 29.94in /  1013.8hPa Calm     77% 0in /  0mm
01:09 55 °F /  12.8 °C 48.4 °F /  9.1 °C 29.94in /  1013.8hPa Calm   1mph /  1.6km/h 78% 0in /  0mm
01:14 54.9 °F /  12.7 °C 48.2 °F /  9 °C 29.94in /  1013.8hPa Calm   4mph /  6.4km/h 78% 0in /  0mm
01:19 54.9 °F /  12.7 °C 47.8 °F /  8.8 °C 29.94in /  1013.8hPa Calm     77% 0in /  0mm
01:24 54.9 °F /  12.7 °C 47.8 °F /  8.8 °C 29.94in /  1013.8hPa Calm   1mph /  1.6km/h 77% 0in /  0mm
01:29 54.7 °F /  12.6 °C 47.7 °F /  8.7 °C 29.94in /  1013.8hPa Calm     77% 0in /  0mm
01:34 54.3 °F /  12.4 °C 47.3 °F /  8.5 °C 29.94in /  1013.8hPa North 0.9mph /  1.4km/h 2mph /  3.2km/h 77% 0in /  0mm
01:39 54.3 °F /  12.4 °C 47.3 °F /  8.5 °C 29.94in /  1013.8hPa Calm   1mph /  1.6km/h 77% 0in /  0mm
01:44 54.1 °F /  12.3 °C 47.1 °F /  8.4 °C 29.95in /  1014.1hPa Calm     77% 0in /  0mm
01:49 54.1 °F /  12.3 °C 47.1 °F /  8.4 °C 29.95in /  1014.1hPa Calm   1mph /  1.6km/h 77% 0in /  0mm
01:54 54 °F /  12.2 °C 46.6 °F /  8.1 °C 29.95in /  1014.1hPa Calm     76% 0in /  0mm
01:59 54 °F /  12.2 °C 46.2 °F /  7.9 °C 29.95in /  1014.1hPa Calm   1mph /  1.6km/h 75% 0in /  0mm
02:04 53.6 °F /  12 °C 46.2 °F /  7.9 °C 29.95in /  1014.1hPa Calm     76% 0in /  0mm
02:09 53.4 °F /  11.9 °C 46 °F /  7.8 °C 29.95in /  1014.1hPa Calm     76% 0in /  0mm
02:14 53.2 °F /  11.8 °C 45.5 °F /  7.5 °C 29.95in /  1014.1hPa Calm     75% 0in /  0mm
02:19 53.1 °F /  11.7 °C 45.3 °F /  7.4 °C 29.95in /  1014.1hPa Calm   2mph /  3.2km/h 75% 0in /  0mm
02:24 52.9 °F /  11.6 °C 45.1 °F /  7.3 °C 29.95in /  1014.1hPa Calm     75% 0in /  0mm
02:29 52.9 °F /  11.6 °C 44.8 °F /  7.1 °C 29.95in /  1014.1hPa Calm     74% 0in /  0mm
02:34 52.7 °F /  11.5 °C 44.6 °F /  7 °C 29.95in /  1014.1hPa Calm   4mph /  6.4km/h 74% 0in /  0mm
02:39 52.5 °F /  11.4 °C 44.4 °F /  6.9 °C 29.95in /  1014.1hPa Calm   1mph /  1.6km/h 74% 0in /  0mm
02:44 52.5 °F /  11.4 °C 44.4 °F /  6.9 °C 29.95in /  1014.1hPa Calm   6mph /  9.7km/h 74% 0in /  0mm
02:49 52.3 °F /  11.3 °C 44.2 °F /  6.8 °C 29.95in /  1014.1hPa Calm     74% 0in /  0mm
02:54 52.3 °F /  11.3 °C 44.2 °F /  6.8 °C 29.95in /  1014.1hPa Calm   3mph /  4.8km/h 74% 0in /  0mm
02:59 52.3 °F /  11.3 °C 44.2 °F /  6.8 °C 29.95in /  1014.1hPa Calm     74% 0in /  0mm
03:04 52.3 °F /  11.3 °C 44.2 °F /  6.8 °C 29.96in /  1014.4hPa Calm   2mph /  3.2km/h 74% 0in /  0mm
03:09 52.2 °F /  11.2 °C 44.1 °F /  6.7 °C 29.95in /  1014.1hPa Calm   3mph /  4.8km/h 74% 0in /  0mm
03:14 52.2 °F /  11.2 °C 44.1 °F /  6.7 °C 29.95in /  1014.1hPa Calm   2mph /  3.2km/h 74% 0in /  0mm
03:19 52 °F /  11.1 °C 43.9 °F /  6.6 °C 29.96in /  1014.4hPa Calm     74% 0in /  0mm
03:24 51.8 °F /  11 °C 43.7 °F /  6.5 °C 29.95in /  1014.1hPa Calm     74% 0in /  0mm
03:29 51.6 °F /  10.9 °C 43.3 °F /  6.3 °C 29.95in /  1014.1hPa Calm   1mph /  1.6km/h 73% 0in /  0mm
03:34 51.6 °F /  10.9 °C 43.3 °F /  6.3 °C 29.95in /  1014.1hPa Calm     73% 0in /  0mm
03:39 51.4 °F /  10.8 °C 43.2 °F /  6.2 °C 29.95in /  1014.1hPa Calm   2mph /  3.2km/h 73% 0in /  0mm
03:44 51.4 °F /  10.8 °C 43.2 °F /  6.2 °C 29.94in /  1013.8hPa Calm     73% 0in /  0mm
03:49 51.3 °F /  10.7 °C 43.3 °F /  6.3 °C 29.94in /  1013.8hPa Calm     74% 0in /  0mm
03:54 51.3 °F /  10.7 °C 43.3 °F /  6.3 °C 29.95in /  1014.1hPa Calm   1mph /  1.6km/h 74% 0in /  0mm
03:59 51.3 °F /  10.7 °C 43.3 °F /  6.3 °C 29.95in /  1014.1hPa Calm     74% 0in /  0mm
04:04 51.3 °F /  10.7 °C 43.3 °F /  6.3 °C 29.95in /  1014.1hPa Calm   3mph /  4.8km/h 74% 0in /  0mm
04:09 51.3 °F /  10.7 °C 43.5 °F /  6.4 °C 29.95in /  1014.1hPa Calm   3mph /  4.8km/h 75% 0in /  0mm
04:14 51.3 °F /  10.7 °C 43.5 °F /  6.4 °C 29.95in /  1014.1hPa Calm   1mph /  1.6km/h 75% 0in /  0mm
04:19 51.3 °F /  10.7 °C 43.9 °F /  6.6 °C 29.95in /  1014.1hPa NE 2.9mph /  4.7km/h 4mph /  6.4km/h 76% 0in /  0mm
04:24 51.3 °F /  10.7 °C 43.9 °F /  6.6 °C 29.95in /  1014.1hPa Calm   4mph /  6.4km/h 76% 0in /  0mm
04:29 51.3 °F /  10.7 °C 43.9 °F /  6.6 °C 29.95in /  1014.1hPa Calm   5mph /  8km/h 76% 0in /  0mm
04:34 51.4 °F /  10.8 °C 44.4 °F /  6.9 °C 29.95in /  1014.1hPa Calm   4mph /  6.4km/h 77% 0in /  0mm
04:39 51.4 °F /  10.8 °C 44.4 °F /  6.9 °C 29.95in /  1014.1hPa WNW 0.9mph /  1.4km/h 6mph /  9.7km/h 77% 0in /  0mm
04:44 51.4 °F /  10.8 °C 44.4 °F /  6.9 °C 29.95in /  1014.1hPa WNW 2.9mph /  4.7km/h 3mph /  4.8km/h 77% 0in /  0mm
04:49 51.3 °F /  10.7 °C 44.2 °F /  6.8 °C 29.94in /  1013.8hPa WNW 2.9mph /  4.7km/h 6mph /  9.7km/h 77% 0in /  0mm
04:54 51.3 °F /  10.7 °C 44.2 °F /  6.8 °C 29.94in /  1013.8hPa Calm     77% 0in /  0mm
04:59 51.3 °F /  10.7 °C 44.2 °F /  6.8 °C 29.94in /  1013.8hPa Calm   3mph /  4.8km/h 77% 0in /  0mm
05:04 51.3 °F /  10.7 °C 44.2 °F /  6.8 °C 29.95in /  1014.1hPa Calm   4mph /  6.4km/h 77% 0in /  0mm
05:09 51.3 °F /  10.7 °C 44.2 °F /  6.8 °C 29.94in /  1013.8hPa West 6mph /  9.7km/h 10mph /  16.1km/h 77% 0in /  0mm
05:14 51.3 °F /  10.7 °C 44.2 °F /  6.8 °C 29.94in /  1013.8hPa Calm   4mph /  6.4km/h 77% 0in /  0mm
05:19 51.1 °F /  10.6 °C 44.1 °F /  6.7 °C 29.94in /  1013.8hPa Calm   5mph /  8km/h 77% 0in /  0mm
05:24 51.1 °F /  10.6 °C 44.1 °F /  6.7 °C 29.94in /  1013.8hPa NW 2.9mph /  4.7km/h 3mph /  4.8km/h 77% 0in /  0mm
05:29 51.1 °F /  10.6 °C 44.1 °F /  6.7 °C 29.94in /  1013.8hPa West 0.9mph /  1.4km/h 5mph /  8km/h 77% 0in /  0mm
05:34 50.9 °F /  10.5 °C 43.9 °F /  6.6 °C 29.94in /  1013.8hPa Calm   5mph /  8km/h 77% 0in /  0mm
05:39 50.9 °F /  10.5 °C 43.9 °F /  6.6 °C 29.94in /  1013.8hPa NW 2mph /  3.2km/h 6mph /  9.7km/h 77% 0in /  0mm
05:44 50.7 °F /  10.4 °C 43.7 °F /  6.5 °C 29.94in /  1013.8hPa NW 0.9mph /  1.4km/h 7mph /  11.3km/h 77% 0in /  0mm
05:49 50.7 °F /  10.4 °C 43.7 °F /  6.5 °C 29.94in /  1013.8hPa Calm   2mph /  3.2km/h 77% 0in /  0mm
05:54 50.7 °F /  10.4 °C 43.7 °F /  6.5 °C 29.94in /  1013.8hPa NNW 0.9mph /  1.4km/h 3mph /  4.8km/h 77% 0in /  0mm
05:59 50.5 °F /  10.3 °C 43.5 °F /  6.4 °C 29.94in /  1013.8hPa Calm   5mph /  8km/h 77% 0in /  0mm
06:04 50.5 °F /  10.3 °C 43.5 °F /  6.4 °C 29.94in /  1013.8hPa Calm   2mph /  3.2km/h 77% 0in /  0mm
06:09 50.5 °F /  10.3 °C 43.5 °F /  6.4 °C 29.94in /  1013.8hPa NW 2mph /  3.2km/h 11mph /  17.7km/h 77% 0in /  0mm
06:14 50.5 °F /  10.3 °C 43.9 °F /  6.6 °C 29.94in /  1013.8hPa Calm   6mph /  9.7km/h 78% 0in /  0mm
06:19 50.4 °F /  10.2 °C 43.7 °F /  6.5 °C 29.94in /  1013.8hPa Calm   7mph /  11.3km/h 78% 0in /  0mm
06:24 50.4 °F /  10.2 °C 43.7 °F /  6.5 °C 29.94in /  1013.8hPa West 2mph /  3.2km/h 7mph /  11.3km/h 78% 0in /  0mm
06:29 50.4 °F /  10.2 °C 43.7 °F /  6.5 °C 29.93in /  1013.4hPa Calm   4mph /  6.4km/h 78% 0in /  0mm
06:34 50.4 °F /  10.2 °C 43.7 °F /  6.5 °C 29.93in /  1013.4hPa NNE 8.9mph /  14.3km/h 9mph /  14.5km/h 78% 0in /  0mm
06:39 50.2 °F /  10.1 °C 43.5 °F /  6.4 °C 29.93in /  1013.4hPa West 0.9mph /  1.4km/h 3mph /  4.8km/h 78% 0in /  0mm
06:44 50.2 °F /  10.1 °C 43.5 °F /  6.4 °C 29.93in /  1013.4hPa NW 0.9mph /  1.4km/h 11mph /  17.7km/h 78% 0in /  0mm
06:49 50.2 °F /  10.1 °C 43.5 °F /  6.4 °C 29.93in /  1013.4hPa Calm   7mph /  11.3km/h 78% 0in /  0mm
06:54 50.2 °F /  10.1 °C 43.5 °F /  6.4 °C 29.93in /  1013.4hPa Calm   6mph /  9.7km/h 78% 0in /  0mm
06:59 50.2 °F /  10.1 °C 43.5 °F /  6.4 °C 29.94in /  1013.8hPa NNE 2mph /  3.2km/h 9mph /  14.5km/h 78% 0in /  0mm
07:04 50.2 °F /  10.1 °C 43.5 °F /  6.4 °C 29.93in /  1013.4hPa Calm   5mph /  8km/h 78% 0in /  0mm
07:09 50 °F /  10 °C 43.3 °F /  6.3 °C 29.94in /  1013.8hPa Calm   5mph /  8km/h 78% 0in /  0mm
07:14 50 °F /  10 °C 43.2 °F /  6.2 °C 29.94in /  1013.8hPa NNW 0.9mph /  1.4km/h 4mph /  6.4km/h 77% 0in /  0mm
07:19 49.8 °F /  9.9 °C 43.2 °F /  6.2 °C 29.94in /  1013.8hPa Calm   8mph /  12.9km/h 78% 0in /  0mm
07:24 49.8 °F /  9.9 °C 43.2 °F /  6.2 °C 29.94in /  1013.8hPa WNW 0.9mph /  1.4km/h 7mph /  11.3km/h 78% 0in /  0mm
07:29 49.8 °F /  9.9 °C 43.2 °F /  6.2 °C 29.94in /  1013.8hPa Calm   2mph /  3.2km/h 78% 0in /  0mm
07:34 49.8 °F /  9.9 °C 43 °F /  6.1 °C 29.95in /  1014.1hPa SE 4mph /  6.4km/h 12mph /  19.3km/h 77% 0in /  0mm
07:39 49.6 °F /  9.8 °C 43 °F /  6.1 °C 29.94in /  1013.8hPa WNW 4mph /  6.4km/h 5mph /  8km/h 78% 0in /  0mm
07:44 49.6 °F /  9.8 °C 43 °F /  6.1 °C 29.94in /  1013.8hPa Calm   11mph /  17.7km/h 78% 0in /  0mm
07:49 49.6 °F /  9.8 °C 43 °F /  6.1 °C 29.94in /  1013.8hPa ENE 2.9mph /  4.7km/h 8mph /  12.9km/h 78% 0in /  0mm
07:54 49.6 °F /  9.8 °C 43 °F /  6.1 °C 29.94in /  1013.8hPa Calm   3mph /  4.8km/h 78% 0in /  0mm
07:59 49.6 °F /  9.8 °C 43 °F /  6.1 °C 29.94in /  1013.8hPa Calm   7mph /  11.3km/h 78% 0in /  0mm
08:04 49.6 °F /  9.8 °C 43 °F /  6.1 °C 29.94in /  1013.8hPa SW 2mph /  3.2km/h 8mph /  12.9km/h 78% 0in /  0mm
08:09 49.6 °F /  9.8 °C 43.3 °F /  6.3 °C 29.94in /  1013.8hPa Calm   8mph /  12.9km/h 79% 0in /  0mm
08:14 49.6 °F /  9.8 °C 43 °F /  6.1 °C 29.95in /  1014.1hPa Calm   9mph /  14.5km/h 78% 0in /  0mm
08:19 49.6 °F /  9.8 °C 43.3 °F /  6.3 °C 29.95in /  1014.1hPa ENE 0.9mph /  1.4km/h 5mph /  8km/h 79% 0in /  0mm
08:24 49.8 °F /  9.9 °C 43.5 °F /  6.4 °C 29.95in /  1014.1hPa ENE 4.9mph /  7.9km/h 7mph /  11.3km/h 79% 0in /  0mm
08:29 49.8 °F /  9.9 °C 43.5 °F /  6.4 °C 29.95in /  1014.1hPa Calm   9mph /  14.5km/h 79% 0in /  0mm
08:34 49.8 °F /  9.9 °C 43.5 °F /  6.4 °C 29.95in /  1014.1hPa West 6mph /  9.7km/h 6mph /  9.7km/h 79% 0in /  0mm
08:39 50 °F /  10 °C 43.7 °F /  6.5 °C 29.95in /  1014.1hPa NW 8.9mph /  14.3km/h 10mph /  16.1km/h 79% 0in /  0mm
08:44 50 °F /  10 °C 43.7 °F /  6.5 °C 29.95in /  1014.1hPa WNW 4.9mph /  7.9km/h 5mph /  8km/h 79% 0in /  0mm
08:49 50.2 °F /  10.1 °C 43.9 °F /  6.6 °C 29.96in /  1014.4hPa Calm   11mph /  17.7km/h 79% 0in /  0mm
08:54 50.4 °F /  10.2 °C 44.1 °F /  6.7 °C 29.96in /  1014.4hPa WNW 6mph /  9.7km/h 11mph /  17.7km/h 79% 0in /  0mm
08:59 50.4 °F /  10.2 °C 44.1 °F /  6.7 °C 29.96in /  1014.4hPa Calm   5mph /  8km/h 79% 0in /  0mm
09:04 50.5 °F /  10.3 °C 44.2 °F /  6.8 °C 29.96in /  1014.4hPa NW 0.9mph /  1.4km/h 3mph /  4.8km/h 79% 0in /  0mm
09:09 50.7 °F /  10.4 °C 44.4 °F /  6.9 °C 29.96in /  1014.4hPa NNW 4.9mph /  7.9km/h 11mph /  17.7km/h 79% 0in /  0mm
09:14 50.9 °F /  10.5 °C 44.6 °F /  7 °C 29.96in /  1014.4hPa NW 2.9mph /  4.7km/h 10mph /  16.1km/h 79% 0in /  0mm
09:19 51.3 °F /  10.7 °C 45 °F /  7.2 °C 29.96in /  1014.4hPa WSW 4mph /  6.4km/h 5mph /  8km/h 79% 0in /  0mm
09:24 51.4 °F /  10.8 °C 45.1 °F /  7.3 °C 29.97in /  1014.8hPa North 2mph /  3.2km/h 10mph /  16.1km/h 79% 0in /  0mm
09:29 51.6 °F /  10.9 °C 45.3 °F /  7.4 °C 29.97in /  1014.8hPa NNW 0.9mph /  1.4km/h 2mph /  3.2km/h 79% 0in /  0mm
09:34 51.8 °F /  11 °C 45.5 °F /  7.5 °C 29.97in /  1014.8hPa Calm   3mph /  4.8km/h 79% 0in /  0mm
09:39 52.2 °F /  11.2 °C 45.9 °F /  7.7 °C 29.97in /  1014.8hPa North 2.9mph /  4.7km/h 4mph /  6.4km/h 79% 0in /  0mm
09:44 52.3 °F /  11.3 °C 46 °F /  7.8 °C 29.97in /  1014.8hPa NW 0.9mph /  1.4km/h 5mph /  8km/h 79% 0in /  0mm
09:49 52.5 °F /  11.4 °C 46.2 °F /  7.9 °C 29.97in /  1014.8hPa NW 2mph /  3.2km/h 6mph /  9.7km/h 79% 0in /  0mm
09:54 52.9 °F /  11.6 °C 46.2 °F /  7.9 °C 29.97in /  1014.8hPa NNE 0.9mph /  1.4km/h 4mph /  6.4km/h 78% 0in /  0mm
09:59 53.1 °F /  11.7 °C 46.4 °F /  8 °C 29.97in /  1014.8hPa Calm     78% 0in /  0mm
10:04 53.2 °F /  11.8 °C 46.6 °F /  8.1 °C 29.98in /  1015.1hPa Calm   3mph /  4.8km/h 78% 0in /  0mm
10:09 53.4 °F /  11.9 °C 46.4 °F /  8 °C 29.98in /  1015.1hPa Calm   1mph /  1.6km/h 77% 0in /  0mm
10:14 53.8 °F /  12.1 °C 46.4 °F /  8 °C 29.98in /  1015.1hPa North 0.9mph /  1.4km/h 8mph /  12.9km/h 76% 0in /  0mm
10:19 54.1 °F /  12.3 °C 46.4 °F /  8 °C 29.98in /  1015.1hPa West 2mph /  3.2km/h 5mph /  8km/h 75% 0in /  0mm
10:24 54.5 °F /  12.5 °C 46.8 °F /  8.2 °C 29.98in /  1015.1hPa West 2.9mph /  4.7km/h 8mph /  12.9km/h 75% 0in /  0mm
10:29 55 °F /  12.8 °C 46.6 °F /  8.1 °C 29.98in /  1015.1hPa WNW 4mph /  6.4km/h 6mph /  9.7km/h 73% 0in /  0mm
10:34 55.2 °F /  12.9 °C 46.8 °F /  8.2 °C 29.98in /  1015.1hPa Calm   6mph /  9.7km/h 73% 0in /  0mm
10:39 55.8 °F /  13.2 °C 46.9 °F /  8.3 °C 29.98in /  1015.1hPa Calm   6mph /  9.7km/h 72% 0in /  0mm
10:44 56.1 °F /  13.4 °C 46.8 °F /  8.2 °C 29.98in /  1015.1hPa Calm     71% 0in /  0mm
10:49 56.7 °F /  13.7 °C 46.6 °F /  8.1 °C 29.98in /  1015.1hPa Calm   7mph /  11.3km/h 69% 0in /  0mm
10:54 57 °F /  13.9 °C 46.2 °F /  7.9 °C 29.98in /  1015.1hPa Calm   4mph /  6.4km/h 67% 0in /  0mm
10:59 57.6 °F /  14.2 °C 46.2 °F /  7.9 °C 29.98in /  1015.1hPa Calm     66% 0in /  0mm
11:04 57.9 °F /  14.4 °C 46.2 °F /  7.9 °C 29.99in /  1015.5hPa Calm   1mph /  1.6km/h 65% 0in /  0mm
11:09 58.5 °F /  14.7 °C 46.4 °F /  8 °C 29.99in /  1015.5hPa ENE 2.9mph /  4.7km/h 5mph /  8km/h 64% 0in /  0mm
11:14 58.8 °F /  14.9 °C 46.2 °F /  7.9 °C 29.99in /  1015.5hPa NE 2mph /  3.2km/h 2mph /  3.2km/h 63% 0in /  0mm
11:19 59.2 °F /  15.1 °C 45.7 °F /  7.6 °C 29.99in /  1015.5hPa NW 2mph /  3.2km/h 4mph /  6.4km/h 61% 0in /  0mm
11:24 59.4 °F /  15.2 °C 45.9 °F /  7.7 °C 29.99in /  1015.5hPa West 0.9mph /  1.4km/h 5mph /  8km/h 61% 0in /  0mm
11:29 59.5 °F /  15.3 °C 45.7 °F /  7.6 °C 30.00in /  1015.8hPa Calm   7mph /  11.3km/h 60% 0in /  0mm
11:34 59.7 °F /  15.4 °C 45 °F /  7.2 °C 30.00in /  1015.8hPa Calm   7mph /  11.3km/h 58% 0in /  0mm
11:39 59.7 °F /  15.4 °C 45.3 °F /  7.4 °C 30.00in /  1015.8hPa NE 0.9mph /  1.4km/h 8mph /  12.9km/h 59% 0in /  0mm
11:44 60.1 °F /  15.6 °C 45.3 °F /  7.4 °C 30.00in /  1015.8hPa WNW 0.9mph /  1.4km/h 8mph /  12.9km/h 58% 0in /  0mm
11:49 60.3 °F /  15.7 °C 45.5 °F /  7.5 °C 29.99in /  1015.5hPa Calm   7mph /  11.3km/h 58% 0in /  0mm
11:54 60.4 °F /  15.8 °C 44.2 °F /  6.8 °C 30.00in /  1015.8hPa Calm   9mph /  14.5km/h 55% 0in /  0mm
11:59 60.6 °F /  15.9 °C 44.8 °F /  7.1 °C 29.99in /  1015.5hPa Calm   5mph /  8km/h 56% 0in /  0mm
12:04 61 °F /  16.1 °C 43.7 °F /  6.5 °C 29.99in /  1015.5hPa NNW 0.9mph /  1.4km/h 6mph /  9.7km/h 53% 0in /  0mm
12:09 61.2 °F /  16.2 °C 43.3 °F /  6.3 °C 29.98in /  1015.1hPa Calm   7mph /  11.3km/h 52% 0in /  0mm
12:14 61.3 °F /  16.3 °C 44.6 °F /  7 °C 29.98in /  1015.1hPa Calm   4mph /  6.4km/h 54% 0in /  0mm
12:19 61.7 °F /  16.5 °C 43.9 °F /  6.6 °C 29.98in /  1015.1hPa Calm   2mph /  3.2km/h 52% 0in /  0mm
12:24 61.9 °F /  16.6 °C 44.1 °F /  6.7 °C 29.98in /  1015.1hPa NW 0.9mph /  1.4km/h 4mph /  6.4km/h 52% 0in /  0mm
12:29 62.2 °F /  16.8 °C 42.8 °F /  6 °C 29.97in /  1014.8hPa Calm   3mph /  4.8km/h 49% 0in /  0mm
12:34 62.4 °F /  16.9 °C 41.9 °F /  5.5 °C 29.97in /  1014.8hPa WNW 2mph /  3.2km/h 5mph /  8km/h 47% 0in /  0mm
12:39 62.8 °F /  17.1 °C 43.3 °F /  6.3 °C 29.97in /  1014.8hPa Calm   1mph /  1.6km/h 49% 0in /  0mm
12:44 63 °F /  17.2 °C 42.4 °F /  5.8 °C 29.97in /  1014.8hPa NW 2.9mph /  4.7km/h 4mph /  6.4km/h 47% 0in /  0mm
12:49 63.1 °F /  17.3 °C 42.1 °F /  5.6 °C 29.96in /  1014.4hPa Calm   2mph /  3.2km/h 46% 0in /  0mm
12:54 63.5 °F /  17.5 °C 43 °F /  6.1 °C 29.96in /  1014.4hPa NW 4mph /  6.4km/h 4mph /  6.4km/h 47% 0in /  0mm
12:59 63.9 °F /  17.7 °C 41.5 °F /  5.3 °C 29.96in /  1014.4hPa NNW 4mph /  6.4km/h 4mph /  6.4km/h 44% 0in /  0mm
13:04 64 °F /  17.8 °C 42.8 °F /  6 °C 29.97in /  1014.8hPa Calm   5mph /  8km/h 46% 0in /  0mm
13:09 64.2 °F /  17.9 °C 42.4 °F /  5.8 °C 29.97in /  1014.8hPa Calm   6mph /  9.7km/h 45% 0in /  0mm
13:14 64.6 °F /  18.1 °C 42.3 °F /  5.7 °C 29.97in /  1014.8hPa Calm   4mph /  6.4km/h 44% 0in /  0mm
13:19 64.8 °F /  18.2 °C 42.3 °F /  5.7 °C 29.96in /  1014.4hPa Calm   4mph /  6.4km/h 44% 0in /  0mm
13:24 64.9 °F /  18.3 °C 41.4 °F /  5.2 °C 29.96in /  1014.4hPa Calm   8mph /  12.9km/h 42% 0in /  0mm
13:29 65.1 °F /  18.4 °C 42.1 °F /  5.6 °C 29.96in /  1014.4hPa Calm   3mph /  4.8km/h 43% 0in /  0mm
13:34 65.5 °F /  18.6 °C 43 °F /  6.1 °C 29.96in /  1014.4hPa Calm   3mph /  4.8km/h 44% 0in /  0mm
13:39 65.7 °F /  18.7 °C 41.9 °F /  5.5 °C 29.95in /  1014.1hPa Calm   5mph /  8km/h 42% 0in /  0mm
13:44 66 °F /  18.9 °C 42.3 °F /  5.7 °C 29.95in /  1014.1hPa WNW 2mph /  3.2km/h 5mph /  8km/h 42% 0in /  0mm
13:49 66.4 °F /  19.1 °C 41.4 °F /  5.2 °C 29.95in /  1014.1hPa Calm     40% 0in /  0mm
13:54 66.4 °F /  19.1 °C 39.9 °F /  4.4 °C 29.95in /  1014.1hPa Calm   2mph /  3.2km/h 38% 0in /  0mm
13:59 66.4 °F /  19.1 °C 37.2 °F /  2.9 °C 29.94in /  1013.8hPa West 2.9mph /  4.7km/h 8mph /  12.9km/h 34% 0in /  0mm
14:04 66.6 °F /  19.2 °C 38.8 °F /  3.8 °C 29.94in /  1013.8hPa Calm   3mph /  4.8km/h 36% 0in /  0mm
14:09 66.7 °F /  19.3 °C 39.6 °F /  4.2 °C 29.94in /  1013.8hPa WNW 2.9mph /  4.7km/h 5mph /  8km/h 37% 0in /  0mm
14:14 66.9 °F /  19.4 °C 39.7 °F /  4.3 °C 29.93in /  1013.4hPa Calm   7mph /  11.3km/h 37% 0in /  0mm
14:19 67.3 °F /  19.6 °C 39.4 °F /  4.1 °C 29.93in /  1013.4hPa ENE 2mph /  3.2km/h 2mph /  3.2km/h 36% 0in /  0mm
14:24 67.5 °F /  19.7 °C 41 °F /  5 °C 29.93in /  1013.4hPa Calm   3mph /  4.8km/h 38% 0in /  0mm
14:29 67.6 °F /  19.8 °C 39 °F /  3.9 °C 29.93in /  1013.4hPa NE 4mph /  6.4km/h 5mph /  8km/h 35% 0in /  0mm
14:34 67.8 °F /  19.9 °C 39.9 °F /  4.4 °C 29.93in /  1013.4hPa Calm   8mph /  12.9km/h 36% 0in /  0mm
14:39 67.8 °F /  19.9 °C 40.6 °F /  4.8 °C 29.93in /  1013.4hPa Calm   1mph /  1.6km/h 37% 0in /  0mm
14:44 67.8 °F /  19.9 °C 39.9 °F /  4.4 °C 29.92in /  1013.1hPa Calm   3mph /  4.8km/h 36% 0in /  0mm
14:49 67.8 °F /  19.9 °C 40.6 °F /  4.8 °C 29.92in /  1013.1hPa Calm   5mph /  8km/h 37% 0in /  0mm
14:54 67.6 °F /  19.8 °C 41.2 °F /  5.1 °C 29.92in /  1013.1hPa Calm   6mph /  9.7km/h 38% 0in /  0mm
14:59 67.8 °F /  19.9 °C 39.9 °F /  4.4 °C 29.92in /  1013.1hPa Calm   6mph /  9.7km/h 36% 0in /  0mm
15:04 67.8 °F /  19.9 °C 41.9 °F /  5.5 °C 29.92in /  1013.1hPa Calm   1mph /  1.6km/h 39% 0in /  0mm
15:09 68 °F /  20 °C 42.1 °F /  5.6 °C 29.91in /  1012.8hPa Calm     39% 0in /  0mm
15:14 68 °F /  20 °C 39.4 °F /  4.1 °C 29.92in /  1013.1hPa Calm   5mph /  8km/h 35% 0in /  0mm
15:19 68 °F /  20 °C 36.3 °F /  2.4 °C 29.91in /  1012.8hPa Calm     31% 0in /  0mm
15:24 68 °F /  20 °C 37 °F /  2.8 °C 29.91in /  1012.8hPa Calm   5mph /  8km/h 32% 0in /  0mm
15:29 68 °F /  20 °C 37.8 °F /  3.2 °C 29.91in /  1012.8hPa Calm     33% 0in /  0mm
15:34 67.8 °F /  19.9 °C 38.5 °F /  3.6 °C 29.91in /  1012.8hPa Calm   1mph /  1.6km/h 34% 0in /  0mm
15:39 68.2 °F /  20.1 °C 37.2 °F /  2.9 °C 29.91in /  1012.8hPa Calm   1mph /  1.6km/h 32% 0in /  0mm
15:44 68.2 °F /  20.1 °C 39.6 °F /  4.2 °C 29.91in /  1012.8hPa Calm   3mph /  4.8km/h 35% 0in /  0mm
15:49 68.2 °F /  20.1 °C 41 °F /  5 °C 29.91in /  1012.8hPa Calm   2mph /  3.2km/h 37% 0in /  0mm
15:54 68 °F /  20 °C 38.7 °F /  3.7 °C 29.91in /  1012.8hPa WNW 2.9mph /  4.7km/h 5mph /  8km/h 34% 0in /  0mm
15:59 67.8 °F /  19.9 °C 39.2 °F /  4 °C 29.91in /  1012.8hPa Calm     35% 0in /  0mm
16:04 67.8 °F /  19.9 °C 40.6 °F /  4.8 °C 29.91in /  1012.8hPa Calm   3mph /  4.8km/h 37% 0in /  0mm
16:09 67.8 °F /  19.9 °C 39.9 °F /  4.4 °C 29.91in /  1012.8hPa Calm   4mph /  6.4km/h 36% 0in /  0mm
16:14 67.8 °F /  19.9 °C 40.6 °F /  4.8 °C 29.91in /  1012.8hPa Calm   1mph /  1.6km/h 37% 0in /  0mm
16:19 68 °F /  20 °C 42.1 °F /  5.6 °C 29.91in /  1012.8hPa Calm   3mph /  4.8km/h 39% 0in /  0mm
16:24 68 °F /  20 °C 41.4 °F /  5.2 °C 29.91in /  1012.8hPa WNW 2.9mph /  4.7km/h 3mph /  4.8km/h 38% 0in /  0mm
16:29 68 °F /  20 °C 42.1 °F /  5.6 °C 29.91in /  1012.8hPa NW 0.9mph /  1.4km/h 2mph /  3.2km/h 39% 0in /  0mm
16:34 68 °F /  20 °C 41.4 °F /  5.2 °C 29.91in /  1012.8hPa Calm   3mph /  4.8km/h 38% 0in /  0mm
16:39 68 °F /  20 °C 41.4 °F /  5.2 °C 29.91in /  1012.8hPa NW 0.9mph /  1.4km/h 1mph /  1.6km/h 38% 0in /  0mm
16:44 67.8 °F /  19.9 °C 42.6 °F /  5.9 °C 29.91in /  1012.8hPa Calm   4mph /  6.4km/h 40% 0in /  0mm
16:49 67.8 °F /  19.9 °C 46.2 °F /  7.9 °C 29.91in /  1012.8hPa Calm     46% 0in /  0mm
16:54 67.6 °F /  19.8 °C 43.7 °F /  6.5 °C 29.91in /  1012.8hPa North 0.9mph /  1.4km/h 1mph /  1.6km/h 42% 0in /  0mm
16:59 67.5 °F /  19.7 °C 49.3 °F /  9.6 °C 29.91in /  1012.8hPa Calm     52% 0in /  0mm
17:04 66.9 °F /  19.4 °C 48.7 °F /  9.3 °C 29.92in /  1013.1hPa Calm   3mph /  4.8km/h 52% 0in /  0mm
17:09 66.7 °F /  19.3 °C 50.5 °F /  10.3 °C 29.91in /  1012.8hPa Calm     56% 0in /  0mm
17:14 66.4 °F /  19.1 °C 49.6 °F /  9.8 °C 29.91in /  1012.8hPa Calm   1mph /  1.6km/h 55% 0in /  0mm
17:19 66 °F /  18.9 °C 52.7 °F /  11.5 °C 29.91in /  1012.8hPa Calm     62% 0in /  0mm
17:24 65.7 °F /  18.7 °C 50 °F /  10 °C 29.91in /  1012.8hPa Calm   5mph /  8km/h 57% 0in /  0mm
17:29 65.5 °F /  18.6 °C 49.8 °F /  9.9 °C 29.91in /  1012.8hPa WNW 2mph /  3.2km/h 3mph /  4.8km/h 57% 0in /  0mm
17:34 65.5 °F /  18.6 °C 50.4 °F /  10.2 °C 29.91in /  1012.8hPa Calm     58% 0in /  0mm
17:39 65.5 °F /  18.6 °C 50.7 °F /  10.4 °C 29.92in /  1013.1hPa Calm   3mph /  4.8km/h 59% 0in /  0mm
17:44 65.3 °F /  18.5 °C 52 °F /  11.1 °C 29.91in /  1012.8hPa WNW 0.9mph /  1.4km/h 1mph /  1.6km/h 62% 0in /  0mm
17:49 64.9 °F /  18.3 °C 52 °F /  11.1 °C 29.92in /  1013.1hPa Calm     63% 0in /  0mm
17:54 64.6 °F /  18.1 °C 52.2 °F /  11.2 °C 29.92in /  1013.1hPa Calm     64% 0in /  0mm
17:59 64 °F /  17.8 °C 51.3 °F /  10.7 °C 29.92in /  1013.1hPa Calm   2mph /  3.2km/h 63% 0in /  0mm
18:04 63.9 °F /  17.7 °C 52.7 °F /  11.5 °C 29.92in /  1013.1hPa Calm     67% 0in /  0mm
18:09 63.5 °F /  17.5 °C 50.7 °F /  10.4 °C 29.92in /  1013.1hPa Calm     63% 0in /  0mm
18:14 63.1 °F /  17.3 °C 52.9 °F /  11.6 °C 29.92in /  1013.1hPa Calm     69% 0in /  0mm
18:19 63 °F /  17.2 °C 52.2 °F /  11.2 °C 29.92in /  1013.1hPa Calm     68% 0in /  0mm
18:24 62.4 °F /  16.9 °C 52.2 °F /  11.2 °C 29.91in /  1012.8hPa Calm     69% 0in /  0mm
18:29 62.1 °F /  16.7 °C 52.2 °F /  11.2 °C 29.91in /  1012.8hPa Calm     70% 0in /  0mm
18:34 61.5 °F /  16.4 °C 52.3 °F /  11.3 °C 29.91in /  1012.8hPa Calm     72% 0in /  0mm
18:39 61.3 °F /  16.3 °C 53.1 °F /  11.7 °C 29.91in /  1012.8hPa Calm     74% 0in /  0mm
18:44 60.8 °F /  16 °C 52.5 °F /  11.4 °C 29.91in /  1012.8hPa Calm     74% 0in /  0mm
18:49 60.3 °F /  15.7 °C 52 °F /  11.1 °C 29.91in /  1012.8hPa Calm   1mph /  1.6km/h 74% 0in /  0mm
18:54 59.5 °F /  15.3 °C 50.9 °F /  10.5 °C 29.91in /  1012.8hPa Calm   3mph /  4.8km/h 73% 0in /  0mm
18:59 59.4 °F /  15.2 °C 51.4 °F /  10.8 °C 29.91in /  1012.8hPa Calm     75% 0in /  0mm
19:04 59 °F /  15 °C 51.4 °F /  10.8 °C 29.92in /  1013.1hPa Calm     76% 0in /  0mm
19:09 58.6 °F /  14.8 °C 51.4 °F /  10.8 °C 29.92in /  1013.1hPa Calm     77% 0in /  0mm
19:14 58.3 °F /  14.6 °C 51.1 °F /  10.6 °C 29.92in /  1013.1hPa Calm     77% 0in /  0mm
19:19 57.9 °F /  14.4 °C 50.7 °F /  10.4 °C 29.92in /  1013.1hPa Calm     77% 0in /  0mm
19:24 57.7 °F /  14.3 °C 50.2 °F /  10.1 °C 29.92in /  1013.1hPa Calm     76% 0in /  0mm
19:29 57.6 °F /  14.2 °C 50.4 °F /  10.2 °C 29.92in /  1013.1hPa Calm     77% 0in /  0mm
19:34 57.6 °F /  14.2 °C 50.4 °F /  10.2 °C 29.92in /  1013.1hPa Calm   1mph /  1.6km/h 77% 0in /  0mm
19:39 57.4 °F /  14.1 °C 50.2 °F /  10.1 °C 29.93in /  1013.4hPa Calm     77% 0in /  0mm
19:44 57 °F /  13.9 °C 49.8 °F /  9.9 °C 29.92in /  1013.1hPa Calm     77% 0in /  0mm
19:49 56.8 °F /  13.8 °C 49.6 °F /  9.8 °C 29.93in /  1013.4hPa Calm     77% 0in /  0mm
19:54 56.7 °F /  13.7 °C 49.8 °F /  9.9 °C 29.93in /  1013.4hPa Calm     78% 0in /  0mm
19:59 56.5 °F /  13.6 °C 49.6 °F /  9.8 °C 29.93in /  1013.4hPa Calm     78% 0in /  0mm
20:04 56.1 °F /  13.4 °C 49.3 °F /  9.6 °C 29.93in /  1013.4hPa Calm     78% 0in /  0mm
20:09 55.9 °F /  13.3 °C 49.1 °F /  9.5 °C 29.93in /  1013.4hPa Calm     78% 0in /  0mm
20:14 55.8 °F /  13.2 °C 48.9 °F /  9.4 °C 29.93in /  1013.4hPa Calm     78% 0in /  0mm
20:19 55.6 °F /  13.1 °C 48.9 °F /  9.4 °C 29.93in /  1013.4hPa Calm     78% 0in /  0mm
20:24 55 °F /  12.8 °C 48.4 °F /  9.1 °C 29.93in /  1013.4hPa Calm     78% 0in /  0mm
20:29 54.9 °F /  12.7 °C 47.8 °F /  8.8 °C 29.94in /  1013.8hPa Calm     77% 0in /  0mm
20:34 54.7 °F /  12.6 °C 47.7 °F /  8.7 °C 29.93in /  1013.4hPa Calm     77% 0in /  0mm
20:39 54.3 °F /  12.4 °C 47.3 °F /  8.5 °C 29.93in /  1013.4hPa Calm     77% 0in /  0mm
20:44 54.1 °F /  12.3 °C 47.1 °F /  8.4 °C 29.93in /  1013.4hPa Calm     77% 0in /  0mm
20:49 54 °F /  12.2 °C 46.6 °F /  8.1 °C 29.93in /  1013.4hPa Calm     76% 0in /  0mm
20:54 53.8 °F /  12.1 °C 46 °F /  7.8 °C 29.93in /  1013.4hPa Calm     75% 0in /  0mm
20:59 53.4 °F /  11.9 °C 45.7 °F /  7.6 °C 29.93in /  1013.4hPa Calm     75% 0in /  0mm
21:04 53.2 °F /  11.8 °C 45.5 °F /  7.5 °C 29.93in /  1013.4hPa Calm     75% 0in /  0mm
21:09 53.2 °F /  11.8 °C 45.5 °F /  7.5 °C 29.93in /  1013.4hPa Calm     75% 0in /  0mm
21:14 53.1 °F /  11.7 °C 45.3 °F /  7.4 °C 29.93in /  1013.4hPa Calm     75% 0in /  0mm
21:19 52.9 °F /  11.6 °C 44.8 °F /  7.1 °C 29.94in /  1013.8hPa Calm     74% 0in /  0mm
21:24 52.9 °F /  11.6 °C 44.8 °F /  7.1 °C 29.94in /  1013.8hPa Calm     74% 0in /  0mm
21:29 52.7 °F /  11.5 °C 44.2 °F /  6.8 °C 29.94in /  1013.8hPa Calm     73% 0in /  0mm
21:34 52.5 °F /  11.4 °C 44.1 °F /  6.7 °C 29.94in /  1013.8hPa Calm     73% 0in /  0mm
21:39 52.3 °F /  11.3 °C 43.9 °F /  6.6 °C 29.94in /  1013.8hPa Calm     73% 0in /  0mm
21:44 52.3 °F /  11.3 °C 43.9 °F /  6.6 °C 29.94in /  1013.8hPa Calm     73% 0in /  0mm
21:49 52.2 °F /  11.2 °C 43.3 °F /  6.3 °C 29.95in /  1014.1hPa Calm     72% 0in /  0mm
21:54 52 °F /  11.1 °C 43.2 °F /  6.2 °C 29.95in /  1014.1hPa Calm     72% 0in /  0mm
21:59 52 °F /  11.1 °C 43.2 °F /  6.2 °C 29.95in /  1014.1hPa Calm     72% 0in /  0mm
22:04 51.6 °F /  10.9 °C 43 °F /  6.1 °C 29.95in /  1014.1hPa Calm     72% 0in /  0mm
22:09 51.6 °F /  10.9 °C 43 °F /  6.1 °C 29.95in /  1014.1hPa Calm     72% 0in /  0mm
22:14 51.4 °F /  10.8 °C 42.4 °F /  5.8 °C 29.95in /  1014.1hPa Calm     71% 0in /  0mm
22:19 51.4 °F /  10.8 °C 42.4 °F /  5.8 °C 29.95in /  1014.1hPa Calm     71% 0in /  0mm
22:24 51.4 °F /  10.8 °C 42.4 °F /  5.8 °C 29.96in /  1014.4hPa Calm     71% 0in /  0mm
22:29 51.3 °F /  10.7 °C 42.3 °F /  5.7 °C 29.96in /  1014.4hPa Calm     71% 0in /  0mm
22:34 51.3 °F /  10.7 °C 42.3 °F /  5.7 °C 29.96in /  1014.4hPa Calm     71% 0in /  0mm
22:39 51.3 °F /  10.7 °C 41.9 °F /  5.5 °C 29.95in /  1014.1hPa Calm     70% 0in /  0mm
22:44 51.1 °F /  10.6 °C 41.7 °F /  5.4 °C 29.95in /  1014.1hPa Calm     70% 0in /  0mm
22:49 51.1 °F /  10.6 °C 41.7 °F /  5.4 °C 29.96in /  1014.4hPa Calm     70% 0in /  0mm
22:54 51.1 °F /  10.6 °C 41.7 °F /  5.4 °C 29.95in /  1014.1hPa Calm     70% 0in /  0mm
22:59 50.9 °F /  10.5 °C 41.5 °F /  5.3 °C 29.94in /  1013.8hPa Calm     70% 0in /  0mm
23:04 50.9 °F /  10.5 °C 41.2 °F /  5.1 °C 29.95in /  1014.1hPa Calm     69% 0in /  0mm
23:09 50.7 °F /  10.4 °C 41 °F /  5 °C 29.95in /  1014.1hPa Calm     69% 0in /  0mm
23:14 50.7 °F /  10.4 °C 41 °F /  5 °C 29.96in /  1014.4hPa Calm     69% 0in /  0mm
23:19 50.5 °F /  10.3 °C 40.8 °F /  4.9 °C 29.96in /  1014.4hPa Calm     69% 0in /  0mm
23:24 50.5 °F /  10.3 °C 40.8 °F /  4.9 °C 29.96in /  1014.4hPa Calm     69% 0in /  0mm
23:29 50.5 °F /  10.3 °C 40.8 °F /  4.9 °C 29.95in /  1014.1hPa Calm     69% 0in /  0mm
23:34 50.5 °F /  10.3 °C 40.5 °F /  4.7 °C 29.96in /  1014.4hPa Calm     68% 0in /  0mm
23:39 50.5 °F /  10.3 °C 40.5 °F /  4.7 °C 29.96in /  1014.4hPa Calm     68% 0in /  0mm
23:44 50.5 °F /  10.3 °C 40.5 °F /  4.7 °C 29.96in /  1014.4hPa Calm     68% 0in /  0mm
23:49 50.5 °F /  10.3 °C 40.5 °F /  4.7 °C 29.96in /  1014.4hPa Calm     68% 0in /  0mm
23:54 50.7 °F /  10.4 °C 40.1 °F /  4.5 °C 29.96in /  1014.4hPa Calm     67% 0in /  0mm
23:59 50.7 °F /  10.4 °C 40.1 °F /  4.5 °C 29.96in /  1014.4hPa Calm     67% 0in /  0mm
Ellijay Weather
Compliments of Weather Underground - 2.5 mb